sensor_id;sensor_type;location;lat;lon;timestamp;temperature;humidity
25951;DHT22;13748;52.240;6.002;2023-08-24T00:01:39;18.00;99.90
25951;DHT22;13748;52.240;6.002;2023-08-24T00:04:06;18.20;99.90
25951;DHT22;13748;52.240;6.002;2023-08-24T00:06:35;18.30;99.90
25951;DHT22;13748;52.240;6.002;2023-08-24T00:09:02;17.90;99.90
25951;DHT22;13748;52.240;6.002;2023-08-24T00:11:31;17.90;99.90
25951;DHT22;13748;52.240;6.002;2023-08-24T00:13:58;17.90;99.90
25951;DHT22;13748;52.240;6.002;2023-08-24T00:16:25;17.90;99.90
25951;DHT22;13748;52.240;6.002;2023-08-24T00:18:51;18.00;99.90
25951;DHT22;13748;52.240;6.002;2023-08-24T00:21:18;17.90;99.90
25951;DHT22;13748;52.240;6.002;2023-08-24T00:23:50;17.70;99.90
25951;DHT22;13748;52.240;6.002;2023-08-24T00:26:17;17.90;99.90
25951;DHT22;13748;52.240;6.002;2023-08-24T00:28:44;17.80;99.90
25951;DHT22;13748;52.240;6.002;2023-08-24T00:31:12;17.60;99.90
25951;DHT22;13748;52.240;6.002;2023-08-24T00:33:39;17.70;99.90
25951;DHT22;13748;52.240;6.002;2023-08-24T00:36:06;17.70;99.90
25951;DHT22;13748;52.240;6.002;2023-08-24T00:38:33;17.60;99.90
25951;DHT22;13748;52.240;6.002;2023-08-24T00:41:00;17.70;99.90
25951;DHT22;13748;52.240;6.002;2023-08-24T00:43:27;17.60;99.90
25951;DHT22;13748;52.240;6.002;2023-08-24T00:46:00;17.50;99.90
25951;DHT22;13748;52.240;6.002;2023-08-24T00:48:28;17.60;99.90
25951;DHT22;13748;52.240;6.002;2023-08-24T00:50:59;17.60;99.90
25951;DHT22;13748;52.240;6.002;2023-08-24T00:53:28;17.50;99.90
25951;DHT22;13748;52.240;6.002;2023-08-24T00:55:56;17.50;99.90
25951;DHT22;13748;52.240;6.002;2023-08-24T00:58:24;17.60;99.90
25951;DHT22;13748;52.240;6.002;2023-08-24T01:00:54;17.60;99.90
25951;DHT22;13748;52.240;6.002;2023-08-24T01:03:22;17.60;99.90
25951;DHT22;13748;52.240;6.002;2023-08-24T01:05:51;17.60;99.90
25951;DHT22;13748;52.240;6.002;2023-08-24T01:08:19;17.70;99.90
25951;DHT22;13748;52.240;6.002;2023-08-24T01:11:09;17.60;99.90
25951;DHT22;13748;52.240;6.002;2023-08-24T01:14:08;17.60;99.90
25951;DHT22;13748;52.240;6.002;2023-08-24T01:16:33;17.60;99.90
25951;DHT22;13748;52.240;6.002;2023-08-24T01:19:04;17.60;99.90
25951;DHT22;13748;52.240;6.002;2023-08-24T01:21:33;17.60;99.90
25951;DHT22;13748;52.240;6.002;2023-08-24T01:24:36;17.70;99.90
25951;DHT22;13748;52.240;6.002;2023-08-24T01:27:05;17.70;99.90
25951;DHT22;13748;52.240;6.002;2023-08-24T01:29:32;17.70;99.90
25951;DHT22;13748;52.240;6.002;2023-08-24T01:31:59;17.70;99.90
25951;DHT22;13748;52.240;6.002;2023-08-24T01:34:26;17.50;99.90
25951;DHT22;13748;52.240;6.002;2023-08-24T01:36:53;17.80;99.90
25951;DHT22;13748;52.240;6.002;2023-08-24T01:39:34;17.80;99.90
25951;DHT22;13748;52.240;6.002;2023-08-24T01:42:03;17.60;99.90
25951;DHT22;13748;52.240;6.002;2023-08-24T01:44:35;17.80;99.90
25951;DHT22;13748;52.240;6.002;2023-08-24T01:47:05;17.80;99.90
25951;DHT22;13748;52.240;6.002;2023-08-24T01:49:34;17.70;99.90
25951;DHT22;13748;52.240;6.002;2023-08-24T01:52:02;17.70;99.90
25951;DHT22;13748;52.240;6.002;2023-08-24T01:54:29;17.60;99.90
25951;DHT22;13748;52.240;6.002;2023-08-24T01:56:56;17.70;99.90
25951;DHT22;13748;52.240;6.002;2023-08-24T01:59:23;17.70;99.90
25951;DHT22;13748;52.240;6.002;2023-08-24T02:01:50;17.90;99.90
25951;DHT22;13748;52.240;6.002;2023-08-24T02:04:16;18.20;99.90
25951;DHT22;13748;52.240;6.002;2023-08-24T02:06:43;17.70;99.90
25951;DHT22;13748;52.240;6.002;2023-08-24T02:09:10;17.80;99.90
25951;DHT22;13748;52.240;6.002;2023-08-24T02:11:37;17.70;99.90
25951;DHT22;13748;52.240;6.002;2023-08-24T02:14:04;17.80;99.90
25951;DHT22;13748;52.240;6.002;2023-08-24T02:16:30;17.90;99.90
25951;DHT22;13748;52.240;6.002;2023-08-24T02:18:57;18.60;99.90
25951;DHT22;13748;52.240;6.002;2023-08-24T02:21:24;17.40;99.90
25951;DHT22;13748;52.240;6.002;2023-08-24T02:23:51;17.90;99.90
25951;DHT22;13748;52.240;6.002;2023-08-24T02:26:18;18.70;99.90
25951;DHT22;13748;52.240;6.002;2023-08-24T02:28:44;17.50;99.90
25951;DHT22;13748;52.240;6.002;2023-08-24T02:31:11;17.50;99.90
25951;DHT22;13748;52.240;6.002;2023-08-24T02:33:38;17.80;99.90
25951;DHT22;13748;52.240;6.002;2023-08-24T02:36:05;18.50;99.90
25951;DHT22;13748;52.240;6.002;2023-08-24T02:38:32;18.00;99.90
25951;DHT22;13748;52.240;6.002;2023-08-24T02:41:06;17.30;99.90
25951;DHT22;13748;52.240;6.002;2023-08-24T02:43:33;18.00;99.90
25951;DHT22;13748;52.240;6.002;2023-08-24T02:46:05;18.00;99.90
25951;DHT22;13748;52.240;6.002;2023-08-24T02:48:32;18.70;99.90
25951;DHT22;13748;52.240;6.002;2023-08-24T02:51:01;17.80;99.90
25951;DHT22;13748;52.240;6.002;2023-08-24T02:53:30;18.10;99.90
25951;DHT22;13748;52.240;6.002;2023-08-24T02:55:57;18.10;99.90
25951;DHT22;13748;52.240;6.002;2023-08-24T02:58:24;18.00;99.90
25951;DHT22;13748;52.240;6.002;2023-08-24T03:00:50;18.00;99.90
25951;DHT22;13748;52.240;6.002;2023-08-24T03:03:17;18.00;99.90
25951;DHT22;13748;52.240;6.002;2023-08-24T03:06:00;18.00;99.90
25951;DHT22;13748;52.240;6.002;2023-08-24T03:08:28;17.90;99.90
25951;DHT22;13748;52.240;6.002;2023-08-24T03:10:56;17.90;99.90
25951;DHT22;13748;52.240;6.002;2023-08-24T03:13:23;18.10;99.90
25951;DHT22;13748;52.240;6.002;2023-08-24T03:15:50;17.70;99.90
25951;DHT22;13748;52.240;6.002;2023-08-24T03:18:17;17.70;99.90
25951;DHT22;13748;52.240;6.002;2023-08-24T03:20:45;17.70;99.90
25951;DHT22;13748;52.240;6.002;2023-08-24T03:23:12;17.80;99.90
25951;DHT22;13748;52.240;6.002;2023-08-24T03:25:41;17.80;99.90
25951;DHT22;13748;52.240;6.002;2023-08-24T03:28:08;17.80;99.90
25951;DHT22;13748;52.240;6.002;2023-08-24T03:30:36;17.80;99.90
25951;DHT22;13748;52.240;6.002;2023-08-24T03:33:04;17.80;99.90
25951;DHT22;13748;52.240;6.002;2023-08-24T03:35:32;17.80;99.90
25951;DHT22;13748;52.240;6.002;2023-08-24T03:37:59;17.80;99.90
25951;DHT22;13748;52.240;6.002;2023-08-24T03:40:27;17.80;99.90
25951;DHT22;13748;52.240;6.002;2023-08-24T03:42:54;17.80;99.90
25951;DHT22;13748;52.240;6.002;2023-08-24T03:45:21;18.10;99.90
25951;DHT22;13748;52.240;6.002;2023-08-24T03:47:48;18.10;99.90
25951;DHT22;13748;52.240;6.002;2023-08-24T03:50:16;18.10;99.90
25951;DHT22;13748;52.240;6.002;2023-08-24T03:52:43;17.60;99.90
25951;DHT22;13748;52.240;6.002;2023-08-24T03:55:10;17.60;99.90
25951;DHT22;13748;52.240;6.002;2023-08-24T03:57:37;17.50;99.90
25951;DHT22;13748;52.240;6.002;2023-08-24T04:00:08;17.50;99.90
25951;DHT22;13748;52.240;6.002;2023-08-24T04:02:41;17.50;99.90
25951;DHT22;13748;52.240;6.002;2023-08-24T04:05:08;17.50;99.90
25951;DHT22;13748;52.240;6.002;2023-08-24T04:07:35;17.80;99.90
25951;DHT22;13748;52.240;6.002;2023-08-24T04:10:07;17.30;99.90
25951;DHT22;13748;52.240;6.002;2023-08-24T04:12:34;17.30;99.90
25951;DHT22;13748;52.240;6.002;2023-08-24T04:15:01;17.20;99.90
25951;DHT22;13748;52.240;6.002;2023-08-24T04:17:29;17.20;99.90
25951;DHT22;13748;52.240;6.002;2023-08-24T04:19:56;17.20;99.90
25951;DHT22;13748;52.240;6.002;2023-08-24T04:22:23;17.30;99.90
25951;DHT22;13748;52.240;6.002;2023-08-24T04:24:50;17.10;99.90
25951;DHT22;13748;52.240;6.002;2023-08-24T04:27:17;17.10;99.90
25951;DHT22;13748;52.240;6.002;2023-08-24T04:29:44;17.20;99.90
25951;DHT22;13748;52.240;6.002;2023-08-24T04:32:11;16.80;99.90
25951;DHT22;13748;52.240;6.002;2023-08-24T04:34:38;17.10;99.90
25951;DHT22;13748;52.240;6.002;2023-08-24T04:37:06;17.10;99.90
25951;DHT22;13748;52.240;6.002;2023-08-24T04:39:33;16.90;99.90
25951;DHT22;13748;52.240;6.002;2023-08-24T04:42:00;17.10;99.90
25951;DHT22;13748;52.240;6.002;2023-08-24T04:44:27;17.10;99.90
25951;DHT22;13748;52.240;6.002;2023-08-24T04:46:54;17.00;99.90
25951;DHT22;13748;52.240;6.002;2023-08-24T04:49:21;17.10;99.90
25951;DHT22;13748;52.240;6.002;2023-08-24T04:51:47;17.10;99.90
25951;DHT22;13748;52.240;6.002;2023-08-24T04:54:14;17.00;99.90
25951;DHT22;13748;52.240;6.002;2023-08-24T04:56:41;17.00;99.90
25951;DHT22;13748;52.240;6.002;2023-08-24T04:59:08;17.40;99.90
25951;DHT22;13748;52.240;6.002;2023-08-24T05:01:35;17.00;99.90
25951;DHT22;13748;52.240;6.002;2023-08-24T05:04:01;17.00;99.90
25951;DHT22;13748;52.240;6.002;2023-08-24T05:06:29;17.10;99.90
25951;DHT22;13748;52.240;6.002;2023-08-24T05:08:56;17.10;99.90
25951;DHT22;13748;52.240;6.002;2023-08-24T05:11:25;17.10;99.90
25951;DHT22;13748;52.240;6.002;2023-08-24T05:13:53;17.10;99.90
25951;DHT22;13748;52.240;6.002;2023-08-24T05:16:19;17.20;99.90
25951;DHT22;13748;52.240;6.002;2023-08-24T05:18:46;17.20;99.90
25951;DHT22;13748;52.240;6.002;2023-08-24T05:21:13;17.20;99.90
25951;DHT22;13748;52.240;6.002;2023-08-24T05:23:40;17.30;99.90
25951;DHT22;13748;52.240;6.002;2023-08-24T05:26:07;17.30;99.90
25951;DHT22;13748;52.240;6.002;2023-08-24T05:28:34;17.30;99.90
25951;DHT22;13748;52.240;6.002;2023-08-24T05:31:00;16.90;99.90
25951;DHT22;13748;52.240;6.002;2023-08-24T05:33:27;17.40;99.90
25951;DHT22;13748;52.240;6.002;2023-08-24T05:35:57;17.40;99.90
25951;DHT22;13748;52.240;6.002;2023-08-24T05:38:25;18.40;99.90
25951;DHT22;13748;52.240;6.002;2023-08-24T05:40:52;17.50;99.90
25951;DHT22;13748;52.240;6.002;2023-08-24T05:43:19;17.60;99.90
25951;DHT22;13748;52.240;6.002;2023-08-24T05:45:47;17.60;99.90
25951;DHT22;13748;52.240;6.002;2023-08-24T05:48:14;17.80;99.90
25951;DHT22;13748;52.240;6.002;2023-08-24T05:50:45;17.90;99.90
25951;DHT22;13748;52.240;6.002;2023-08-24T05:53:12;18.00;99.90
25951;DHT22;13748;52.240;6.002;2023-08-24T05:55:39;18.10;99.90
25951;DHT22;13748;52.240;6.002;2023-08-24T05:58:07;18.20;99.90
25951;DHT22;13748;52.240;6.002;2023-08-24T06:00:33;18.30;99.90
25951;DHT22;13748;52.240;6.002;2023-08-24T06:03:01;18.40;99.90
25951;DHT22;13748;52.240;6.002;2023-08-24T06:05:30;18.40;99.90
25951;DHT22;13748;52.240;6.002;2023-08-24T06:07:58;18.40;99.90
25951;DHT22;13748;52.240;6.002;2023-08-24T06:10:25;18.60;99.90
25951;DHT22;13748;52.240;6.002;2023-08-24T06:12:53;18.60;99.90
25951;DHT22;13748;52.240;6.002;2023-08-24T06:15:20;18.50;99.90
25951;DHT22;13748;52.240;6.002;2023-08-24T06:17:50;18.60;99.90
25951;DHT22;13748;52.240;6.002;2023-08-24T06:20:19;18.70;99.90
25951;DHT22;13748;52.240;6.002;2023-08-24T06:22:46;18.90;99.90
25951;DHT22;13748;52.240;6.002;2023-08-24T06:25:13;19.50;99.90
25951;DHT22;13748;52.240;6.002;2023-08-24T06:27:39;20.20;99.90
25951;DHT22;13748;52.240;6.002;2023-08-24T06:30:06;20.90;99.90
25951;DHT22;13748;52.240;6.002;2023-08-24T06:32:33;21.60;99.90
25951;DHT22;13748;52.240;6.002;2023-08-24T06:35:00;22.30;99.90
25951;DHT22;13748;52.240;6.002;2023-08-24T06:37:27;22.80;99.90
25951;DHT22;13748;52.240;6.002;2023-08-24T06:39:54;23.30;99.90
25951;DHT22;13748;52.240;6.002;2023-08-24T06:42:21;23.60;99.90
25951;DHT22;13748;52.240;6.002;2023-08-24T06:47:19;24.40;99.90
25951;DHT22;13748;52.240;6.002;2023-08-24T06:49:46;24.70;99.90
25951;DHT22;13748;52.240;6.002;2023-08-24T06:52:13;25.00;99.90
25951;DHT22;13748;52.240;6.002;2023-08-24T06:54:39;25.40;99.90
25951;DHT22;13748;52.240;6.002;2023-08-24T06:57:06;25.70;99.90
25951;DHT22;13748;52.240;6.002;2023-08-24T06:59:33;26.10;99.90
25951;DHT22;13748;52.240;6.002;2023-08-24T07:02:02;26.40;99.90
25951;DHT22;13748;52.240;6.002;2023-08-24T07:04:30;26.80;99.90
25951;DHT22;13748;52.240;6.002;2023-08-24T07:06:58;27.20;99.90
25951;DHT22;13748;52.240;6.002;2023-08-24T07:09:27;27.70;99.90
25951;DHT22;13748;52.240;6.002;2023-08-24T07:11:54;28.10;99.90
25951;DHT22;13748;52.240;6.002;2023-08-24T07:14:21;28.30;99.90
25951;DHT22;13748;52.240;6.002;2023-08-24T07:16:47;28.60;99.90
25951;DHT22;13748;52.240;6.002;2023-08-24T07:19:14;28.70;99.90
25951;DHT22;13748;52.240;6.002;2023-08-24T07:21:43;28.80;99.90
25951;DHT22;13748;52.240;6.002;2023-08-24T07:24:10;28.90;99.90
25951;DHT22;13748;52.240;6.002;2023-08-24T07:26:36;28.90;99.90
25951;DHT22;13748;52.240;6.002;2023-08-24T07:29:03;29.10;99.90
25951;DHT22;13748;52.240;6.002;2023-08-24T07:31:30;29.10;99.90
25951;DHT22;13748;52.240;6.002;2023-08-24T07:33:57;29.20;99.90
25951;DHT22;13748;52.240;6.002;2023-08-24T07:36:25;29.40;99.90
25951;DHT22;13748;52.240;6.002;2023-08-24T07:38:52;29.50;99.90
25951;DHT22;13748;52.240;6.002;2023-08-24T07:41:19;29.60;99.90
25951;DHT22;13748;52.240;6.002;2023-08-24T07:43:46;29.70;99.90
25951;DHT22;13748;52.240;6.002;2023-08-24T07:46:13;29.70;99.90
25951;DHT22;13748;52.240;6.002;2023-08-24T07:48:40;29.80;99.90
25951;DHT22;13748;52.240;6.002;2023-08-24T07:51:07;29.80;99.90
25951;DHT22;13748;52.240;6.002;2023-08-24T07:53:34;29.90;99.90
25951;DHT22;13748;52.240;6.002;2023-08-24T07:56:01;30.00;99.90
25951;DHT22;13748;52.240;6.002;2023-08-24T07:58:28;30.00;99.90
25951;DHT22;13748;52.240;6.002;2023-08-24T08:00:59;30.00;99.90
25951;DHT22;13748;52.240;6.002;2023-08-24T08:03:26;30.10;99.90
25951;DHT22;13748;52.240;6.002;2023-08-24T08:05:54;30.10;99.90
25951;DHT22;13748;52.240;6.002;2023-08-24T08:08:21;30.00;99.90
25951;DHT22;13748;52.240;6.002;2023-08-24T08:10:58;30.00;99.90
25951;DHT22;13748;52.240;6.002;2023-08-24T08:13:26;30.00;99.90
25951;DHT22;13748;52.240;6.002;2023-08-24T08:15:53;30.00;99.90
25951;DHT22;13748;52.240;6.002;2023-08-24T08:18:20;30.10;99.90
25951;DHT22;13748;52.240;6.002;2023-08-24T08:20:50;30.20;99.90
25951;DHT22;13748;52.240;6.002;2023-08-24T08:23:18;30.40;99.90
25951;DHT22;13748;52.240;6.002;2023-08-24T08:25:45;30.50;99.90
25951;DHT22;13748;52.240;6.002;2023-08-24T08:28:12;30.60;99.90
25951;DHT22;13748;52.240;6.002;2023-08-24T08:30:38;30.50;99.90
25951;DHT22;13748;52.240;6.002;2023-08-24T08:33:05;30.40;99.90
25951;DHT22;13748;52.240;6.002;2023-08-24T08:35:32;30.20;99.90
25951;DHT22;13748;52.240;6.002;2023-08-24T08:37:59;30.30;99.90
25951;DHT22;13748;52.240;6.002;2023-08-24T08:40:29;30.20;99.90
25951;DHT22;13748;52.240;6.002;2023-08-24T08:43:00;30.20;99.90
25951;DHT22;13748;52.240;6.002;2023-08-24T08:45:28;30.10;99.90
25951;DHT22;13748;52.240;6.002;2023-08-24T08:47:59;29.90;99.90
25951;DHT22;13748;52.240;6.002;2023-08-24T08:50:27;29.80;99.90
25951;DHT22;13748;52.240;6.002;2023-08-24T08:52:57;29.60;99.90
25951;DHT22;13748;52.240;6.002;2023-08-24T08:55:25;29.50;99.90
25951;DHT22;13748;52.240;6.002;2023-08-24T08:57:56;29.40;99.90
25951;DHT22;13748;52.240;6.002;2023-08-24T09:00:25;29.30;99.90
25951;DHT22;13748;52.240;6.002;2023-08-24T09:02:53;29.20;99.90
25951;DHT22;13748;52.240;6.002;2023-08-24T09:05:22;29.20;99.90
25951;DHT22;13748;52.240;6.002;2023-08-24T09:07:49;29.10;99.90
25951;DHT22;13748;52.240;6.002;2023-08-24T09:10:17;29.00;99.90
25951;DHT22;13748;52.240;6.002;2023-08-24T09:12:43;29.00;99.90
25951;DHT22;13748;52.240;6.002;2023-08-24T09:15:11;28.90;99.90
25951;DHT22;13748;52.240;6.002;2023-08-24T09:17:42;28.70;99.90
25951;DHT22;13748;52.240;6.002;2023-08-24T09:20:10;28.60;99.90
25951;DHT22;13748;52.240;6.002;2023-08-24T09:22:38;28.60;99.90
25951;DHT22;13748;52.240;6.002;2023-08-24T09:25:08;28.60;99.90
25951;DHT22;13748;52.240;6.002;2023-08-24T09:27:35;28.60;99.90
25951;DHT22;13748;52.240;6.002;2023-08-24T09:30:02;28.70;99.90
25951;DHT22;13748;52.240;6.002;2023-08-24T09:32:31;28.70;99.90
25951;DHT22;13748;52.240;6.002;2023-08-24T09:35:08;28.90;99.90
25951;DHT22;13748;52.240;6.002;2023-08-24T09:37:35;29.10;99.90
25951;DHT22;13748;52.240;6.002;2023-08-24T09:40:07;29.20;99.90
25951;DHT22;13748;52.240;6.002;2023-08-24T09:42:44;29.40;99.90
25951;DHT22;13748;52.240;6.002;2023-08-24T09:45:14;29.60;99.90
25951;DHT22;13748;52.240;6.002;2023-08-24T09:47:46;29.60;99.90
25951;DHT22;13748;52.240;6.002;2023-08-24T09:50:13;29.80;99.90
25951;DHT22;13748;52.240;6.002;2023-08-24T09:52:42;29.90;99.90
25951;DHT22;13748;52.240;6.002;2023-08-24T09:55:09;29.90;99.90
25951;DHT22;13748;52.240;6.002;2023-08-24T09:57:39;29.90;99.90
25951;DHT22;13748;52.240;6.002;2023-08-24T10:00:09;29.90;99.90
25951;DHT22;13748;52.240;6.002;2023-08-24T10:02:46;30.10;99.90
25951;DHT22;13748;52.240;6.002;2023-08-24T10:05:20;30.20;99.90
25951;DHT22;13748;52.240;6.002;2023-08-24T10:07:56;30.30;99.90
25951;DHT22;13748;52.240;6.002;2023-08-24T10:10:25;30.20;99.90
25951;DHT22;13748;52.240;6.002;2023-08-24T10:12:59;30.20;99.90
25951;DHT22;13748;52.240;6.002;2023-08-24T10:15:27;30.10;99.90
25951;DHT22;13748;52.240;6.002;2023-08-24T10:17:55;29.90;99.90
25951;DHT22;13748;52.240;6.002;2023-08-24T10:20:22;29.80;99.90
25951;DHT22;13748;52.240;6.002;2023-08-24T10:22:50;29.70;99.90
25951;DHT22;13748;52.240;6.002;2023-08-24T10:25:19;29.60;99.90
25951;DHT22;13748;52.240;6.002;2023-08-24T10:27:47;29.60;99.90
25951;DHT22;13748;52.240;6.002;2023-08-24T10:30:17;29.60;99.90
25951;DHT22;13748;52.240;6.002;2023-08-24T10:32:46;29.60;99.90
25951;DHT22;13748;52.240;6.002;2023-08-24T10:35:16;29.60;99.90
25951;DHT22;13748;52.240;6.002;2023-08-24T10:37:44;29.70;99.90
25951;DHT22;13748;52.240;6.002;2023-08-24T10:40:14;29.60;99.90
25951;DHT22;13748;52.240;6.002;2023-08-24T10:42:57;29.60;99.90
25951;DHT22;13748;52.240;6.002;2023-08-24T10:45:24;29.60;99.90
25951;DHT22;13748;52.240;6.002;2023-08-24T10:47:52;29.70;99.90
25951;DHT22;13748;52.240;6.002;2023-08-24T10:50:22;29.80;99.90
25951;DHT22;13748;52.240;6.002;2023-08-24T10:52:49;30.00;99.90
25951;DHT22;13748;52.240;6.002;2023-08-24T10:55:25;30.00;99.90
25951;DHT22;13748;52.240;6.002;2023-08-24T10:57:59;30.10;99.90
25951;DHT22;13748;52.240;6.002;2023-08-24T11:00:28;30.10;99.90
25951;DHT22;13748;52.240;6.002;2023-08-24T11:02:56;30.10;99.90
25951;DHT22;13748;52.240;6.002;2023-08-24T11:05:29;30.00;99.90
25951;DHT22;13748;52.240;6.002;2023-08-24T11:08:05;29.80;99.90
25951;DHT22;13748;52.240;6.002;2023-08-24T11:13:10;29.60;99.90
25951;DHT22;13748;52.240;6.002;2023-08-24T11:15:48;29.50;99.90
25951;DHT22;13748;52.240;6.002;2023-08-24T11:18:26;29.40;99.90
25951;DHT22;13748;52.240;6.002;2023-08-24T11:20:59;29.40;99.90
25951;DHT22;13748;52.240;6.002;2023-08-24T11:23:26;29.30;99.90
25951;DHT22;13748;52.240;6.002;2023-08-24T11:25:54;29.30;99.90
25951;DHT22;13748;52.240;6.002;2023-08-24T11:28:24;29.30;99.90
25951;DHT22;13748;52.240;6.002;2023-08-24T11:30:52;29.30;99.90
25951;DHT22;13748;52.240;6.002;2023-08-24T11:33:32;29.30;99.90
25951;DHT22;13748;52.240;6.002;2023-08-24T11:36:00;29.20;99.90
25951;DHT22;13748;52.240;6.002;2023-08-24T11:38:39;29.10;99.90
25951;DHT22;13748;52.240;6.002;2023-08-24T11:41:16;29.10;99.90
25951;DHT22;13748;52.240;6.002;2023-08-24T11:43:45;29.00;99.90
25951;DHT22;13748;52.240;6.002;2023-08-24T11:46:13;28.80;99.90
25951;DHT22;13748;52.240;6.002;2023-08-24T11:48:40;28.70;99.90
25951;DHT22;13748;52.240;6.002;2023-08-24T11:51:11;28.70;99.90
25951;DHT22;13748;52.240;6.002;2023-08-24T11:53:43;28.60;99.90
25951;DHT22;13748;52.240;6.002;2023-08-24T11:56:11;28.70;99.90
25951;DHT22;13748;52.240;6.002;2023-08-24T11:58:39;28.70;99.90
25951;DHT22;13748;52.240;6.002;2023-08-24T12:01:08;29.00;99.90
25951;DHT22;13748;52.240;6.002;2023-08-24T12:03:39;28.90;99.90
25951;DHT22;13748;52.240;6.002;2023-08-24T12:06:13;28.90;99.90
25951;DHT22;13748;52.240;6.002;2023-08-24T12:08:42;28.90;99.90
25951;DHT22;13748;52.240;6.002;2023-08-24T12:11:16;28.90;99.90
25951;DHT22;13748;52.240;6.002;2023-08-24T12:13:48;29.30;99.90
25951;DHT22;13748;52.240;6.002;2023-08-24T12:16:16;29.00;99.90
25951;DHT22;13748;52.240;6.002;2023-08-24T12:21:17;28.80;99.90
25951;DHT22;13748;52.240;6.002;2023-08-24T12:23:59;28.90;99.90
25951;DHT22;13748;52.240;6.002;2023-08-24T12:26:27;29.00;99.90
25951;DHT22;13748;52.240;6.002;2023-08-24T12:29:00;29.00;99.90
25951;DHT22;13748;52.240;6.002;2023-08-24T12:31:27;29.20;99.90
25951;DHT22;13748;52.240;6.002;2023-08-24T12:34:05;29.20;99.90
25951;DHT22;13748;52.240;6.002;2023-08-24T12:36:33;29.20;99.90
25951;DHT22;13748;52.240;6.002;2023-08-24T12:39:00;29.20;99.90
25951;DHT22;13748;52.240;6.002;2023-08-24T12:41:27;29.30;99.90
25951;DHT22;13748;52.240;6.002;2023-08-24T12:43:54;29.30;99.90
25951;DHT22;13748;52.240;6.002;2023-08-24T12:46:21;29.30;99.90
25951;DHT22;13748;52.240;6.002;2023-08-24T12:48:47;29.20;99.90
25951;DHT22;13748;52.240;6.002;2023-08-24T12:51:14;29.30;99.90
25951;DHT22;13748;52.240;6.002;2023-08-24T12:53:41;29.30;99.90
25951;DHT22;13748;52.240;6.002;2023-08-24T12:56:10;29.30;99.90
25951;DHT22;13748;52.240;6.002;2023-08-24T12:58:38;29.30;99.90
25951;DHT22;13748;52.240;6.002;2023-08-24T13:01:04;29.40;99.90
25951;DHT22;13748;52.240;6.002;2023-08-24T13:03:32;29.40;99.90
25951;DHT22;13748;52.240;6.002;2023-08-24T13:06:01;29.50;99.90
25951;DHT22;13748;52.240;6.002;2023-08-24T13:08:48;29.60;99.90
25951;DHT22;13748;52.240;6.002;2023-08-24T13:11:15;29.60;99.90
25951;DHT22;13748;52.240;6.002;2023-08-24T13:13:42;29.60;99.90
25951;DHT22;13748;52.240;6.002;2023-08-24T13:16:09;29.60;99.90
25951;DHT22;13748;52.240;6.002;2023-08-24T13:18:36;29.70;99.90
25951;DHT22;13748;52.240;6.002;2023-08-24T13:21:04;29.60;99.90
25951;DHT22;13748;52.240;6.002;2023-08-24T13:23:30;29.60;99.90
25951;DHT22;13748;52.240;6.002;2023-08-24T13:25:58;29.40;99.90
25951;DHT22;13748;52.240;6.002;2023-08-24T13:28:26;29.30;99.90
25951;DHT22;13748;52.240;6.002;2023-08-24T13:30:53;29.10;99.90
25951;DHT22;13748;52.240;6.002;2023-08-24T13:33:20;29.00;99.90
25951;DHT22;13748;52.240;6.002;2023-08-24T13:35:46;28.80;99.90
25951;DHT22;13748;52.240;6.002;2023-08-24T13:38:13;28.60;99.90
25951;DHT22;13748;52.240;6.002;2023-08-24T13:40:40;28.60;99.90
25951;DHT22;13748;52.240;6.002;2023-08-24T13:43:07;28.40;99.90
25951;DHT22;13748;52.240;6.002;2023-08-24T13:45:34;28.50;99.90
25951;DHT22;13748;52.240;6.002;2023-08-24T13:48:04;28.50;99.90
25951;DHT22;13748;52.240;6.002;2023-08-24T13:50:31;28.60;99.90
25951;DHT22;13748;52.240;6.002;2023-08-24T13:52:58;28.60;99.90
25951;DHT22;13748;52.240;6.002;2023-08-24T13:55:25;28.70;99.90
25951;DHT22;13748;52.240;6.002;2023-08-24T13:57:52;28.80;99.90
25951;DHT22;13748;52.240;6.002;2023-08-24T14:00:19;28.80;99.90
25951;DHT22;13748;52.240;6.002;2023-08-24T14:02:46;28.80;99.90
25951;DHT22;13748;52.240;6.002;2023-08-24T14:05:15;28.90;99.90
25951;DHT22;13748;52.240;6.002;2023-08-24T14:07:42;28.90;99.90
25951;DHT22;13748;52.240;6.002;2023-08-24T14:10:09;28.90;99.90
25951;DHT22;13748;52.240;6.002;2023-08-24T14:12:36;28.90;99.90
25951;DHT22;13748;52.240;6.002;2023-08-24T14:15:03;29.00;99.90
25951;DHT22;13748;52.240;6.002;2023-08-24T14:17:30;29.00;99.90
25951;DHT22;13748;52.240;6.002;2023-08-24T14:19:57;28.90;99.90
25951;DHT22;13748;52.240;6.002;2023-08-24T14:22:25;29.00;99.90
25951;DHT22;13748;52.240;6.002;2023-08-24T14:24:52;29.00;99.90
25951;DHT22;13748;52.240;6.002;2023-08-24T14:27:18;28.90;99.90
25951;DHT22;13748;52.240;6.002;2023-08-24T14:29:45;28.90;99.90
25951;DHT22;13748;52.240;6.002;2023-08-24T14:32:12;28.90;99.90
25951;DHT22;13748;52.240;6.002;2023-08-24T14:34:39;28.90;99.90
25951;DHT22;13748;52.240;6.002;2023-08-24T14:37:06;28.90;99.90
25951;DHT22;13748;52.240;6.002;2023-08-24T14:39:33;28.90;99.90
25951;DHT22;13748;52.240;6.002;2023-08-24T14:42:00;28.90;99.90
25951;DHT22;13748;52.240;6.002;2023-08-24T14:44:29;28.90;99.90
25951;DHT22;13748;52.240;6.002;2023-08-24T14:46:56;28.90;99.90
25951;DHT22;13748;52.240;6.002;2023-08-24T14:49:23;28.90;99.90
25951;DHT22;13748;52.240;6.002;2023-08-24T14:51:50;28.90;99.90
25951;DHT22;13748;52.240;6.002;2023-08-24T14:54:16;28.80;99.90
25951;DHT22;13748;52.240;6.002;2023-08-24T14:56:43;28.70;99.90
25951;DHT22;13748;52.240;6.002;2023-08-24T14:59:10;28.60;99.90
25951;DHT22;13748;52.240;6.002;2023-08-24T15:01:37;28.60;99.90
25951;DHT22;13748;52.240;6.002;2023-08-24T15:04:05;28.50;99.90
25951;DHT22;13748;52.240;6.002;2023-08-24T15:06:32;28.40;99.90
25951;DHT22;13748;52.240;6.002;2023-08-24T15:08:58;28.30;99.90
25951;DHT22;13748;52.240;6.002;2023-08-24T15:11:25;28.10;99.90
25951;DHT22;13748;52.240;6.002;2023-08-24T15:13:53;28.00;99.90
25951;DHT22;13748;52.240;6.002;2023-08-24T15:16:20;27.80;99.90
25951;DHT22;13748;52.240;6.002;2023-08-24T15:18:46;27.70;99.90
25951;DHT22;13748;52.240;6.002;2023-08-24T15:21:13;27.70;99.90
25951;DHT22;13748;52.240;6.002;2023-08-24T15:23:42;27.60;99.90
25951;DHT22;13748;52.240;6.002;2023-08-24T15:26:08;27.60;99.90
25951;DHT22;13748;52.240;6.002;2023-08-24T15:29:14;27.50;99.90
25951;DHT22;13748;52.240;6.002;2023-08-24T15:31:42;27.50;99.90
25951;DHT22;13748;52.240;6.002;2023-08-24T15:34:10;27.30;99.90
25951;DHT22;13748;52.240;6.002;2023-08-24T15:36:37;27.30;99.90
25951;DHT22;13748;52.240;6.002;2023-08-24T15:39:04;27.30;99.90
25951;DHT22;13748;52.240;6.002;2023-08-24T15:41:31;27.20;99.90
25951;DHT22;13748;52.240;6.002;2023-08-24T15:43:58;27.10;99.90
25951;DHT22;13748;52.240;6.002;2023-08-24T15:46:24;26.90;99.90